Time;durP1;ratioP1;P1;durP2;ratioP2;P2;SDS_P1;SDS_P2;PMS_P1;PMS_P2;Temp;Humidity;BMP_temperature;BMP_pressure;BME280_temperature;BME280_humidity;BME280_pressure;Samples;Min_cycle;Max_cycle;Signal;HPM_P1;HPM_P2
2023/09/24 02:30:25;;;;;;;4.33;1.70;;;9.00;99.90;;;;;;5602402;22;13045192;-83
2023/09/24 02:32:52;;;;;;;2.37;2.17;;;9.00;99.90;;;;;;6033030;23;20447;-83
2023/09/24 02:35:19;;;;;;;6.03;2.17;;;9.00;99.90;;;;;;6024709;23;20514;-84
2023/09/24 02:37:47;;;;;;;11.20;2.30;;;9.10;99.90;;;;;;6033282;23;21064;-85
2023/09/24 02:40:18;;;;;;;1.90;1.53;;;9.10;99.90;;;;;;6025981;23;20979;-83
2023/09/24 02:42:46;;;;;;;4.97;1.90;;;9.10;99.80;;;;;;6033601;23;20782;-85
2023/09/24 02:45:15;;;;;;;3.50;2.20;;;9.10;99.70;;;;;;6024685;23;20531;-85
2023/09/24 02:47:45;;;;;;;9.97;3.30;;;9.10;99.70;;;;;;6025076;23;20474;-84
2023/09/24 02:50:13;;;;;;;12.00;2.90;;;9.20;99.70;;;;;;6029911;23;20445;-84
2023/09/24 02:52:41;;;;;;;7.50;1.67;;;9.20;99.70;;;;;;6026461;23;20448;-84
2023/09/24 02:55:12;;;;;;;3.00;2.33;;;9.20;99.60;;;;;;6029673;23;20449;-86
2023/09/24 02:57:39;;;;;;;12.60;2.63;;;9.20;99.50;;;;;;6028239;23;20458;-83
2023/09/24 03:00:12;;;;;;;2.13;1.93;;;9.20;99.40;;;;;;6029742;23;20453;-84
2023/09/24 03:02:39;;;;;;;4.30;3.07;;;9.20;99.30;;;;;;6022241;23;20860;-84
2023/09/24 03:05:11;;;;;;;16.73;3.47;;;9.20;99.20;;;;;;6021636;23;20453;-85
2023/09/24 03:07:40;;;;;;;14.00;6.93;;;9.20;99.20;;;;;;6013821;23;20457;-84
2023/09/24 03:10:09;;;;;;;6.97;4.00;;;9.10;99.10;;;;;;6007254;23;20933;-83
2023/09/24 03:12:36;;;;;;;17.77;3.70;;;9.20;99.10;;;;;;6058531;23;20448;-84
2023/09/24 03:15:05;;;;;;;11.03;5.37;;;9.10;99.20;;;;;;6038968;23;20445;-84
2023/09/24 03:17:32;;;;;;;21.60;3.80;;;9.10;99.40;;;;;;6027565;23;20823;-86
2023/09/24 03:20:00;;;;;;;7.10;4.07;;;;;;;;;;6008680;23;20447;-83
2023/09/24 03:22:28;;;;;;;4.03;2.77;;;9.10;99.40;;;;;;6040740;23;20483;-85
2023/09/24 03:24:55;;;;;;;16.93;3.57;;;9.10;99.10;;;;;;6045676;23;20453;-84
2023/09/24 03:27:22;;;;;;;2.73;2.47;;;9.10;99.00;;;;;;6025108;23;20448;-84
2023/09/24 03:29:50;;;;;;;10.63;5.20;;;;;;;;;;6043540;23;20456;-84
2023/09/24 03:32:17;;;;;;;19.43;4.53;;;;;;;;;;6104320;23;20440;-84
2023/09/24 03:34:44;;;;;;;3.27;1.77;;;9.00;98.80;;;;;;6106467;23;20451;-84
2023/09/24 03:37:14;;;;;;;2.57;1.67;;;9.00;98.90;;;;;;6073640;23;20665;-84
2023/09/24 03:39:42;;;;;;;6.10;2.03;;;;;;;;;;6101007;23;20942;-84
2023/09/24 03:42:09;;;;;;;3.40;1.60;;;8.90;98.80;;;;;;6105737;23;20447;-83
2023/09/24 03:44:38;;;;;;;3.20;2.00;;;;;;;;;;6099609;23;20942;-84
2023/09/24 03:47:05;;;;;;;14.43;3.30;;;8.90;98.90;;;;;;6092975;23;20498;-83
2023/09/24 03:49:32;;;;;;;7.47;2.73;;;;;;;;;;6100406;23;20829;-84
2023/09/24 03:51:59;;;;;;;18.07;4.13;;;8.90;99.00;;;;;;6102293;23;20447;-85
2023/09/24 03:54:27;;;;;;;12.53;3.93;;;8.90;98.90;;;;;;6086883;23;20796;-84
2023/09/24 03:56:55;;;;;;;15.07;5.73;;;8.90;98.80;;;;;;6100958;23;20513;-83
2023/09/24 03:59:23;;;;;;;13.87;3.03;;;;;;;;;;6105675;23;20893;-84
2023/09/24 04:01:50;;;;;;;12.60;2.80;;;8.90;98.90;;;;;;6055742;23;20451;-84
2023/09/24 04:04:17;;;;;;;1.83;1.17;;;8.90;99.00;;;;;;6102999;23;20477;-85
2023/09/24 04:06:44;;;;;;;4.37;2.40;;;;;;;;;;6106477;23;20451;-85
2023/09/24 04:09:12;;;;;;;3.03;1.43;;;8.90;98.90;;;;;;6104130;23;20949;-84
2023/09/24 04:11:39;;;;;;;2.60;2.40;;;8.80;98.90;;;;;;6084035;23;20451;-84
2023/09/24 04:14:07;;;;;;;3.07;2.50;;;8.90;98.90;;;;;;6096947;23;20447;-84
2023/09/24 04:16:34;;;;;;;8.13;3.53;;;8.90;98.80;;;;;;6101147;23;21089;-85
2023/09/24 04:19:04;;;;;;;7.60;2.53;;;;;;;;;;6078085;23;20694;-84
2023/09/24 04:21:30;;;;;;;8.67;2.57;;;8.90;98.70;;;;;;6088412;23;20447;-84
2023/09/24 04:23:57;;;;;;;3.43;3.13;;;8.90;98.80;;;;;;6099938;23;20439;-84
2023/09/24 04:26:26;;;;;;;22.10;3.37;;;9.00;98.90;;;;;;6045861;23;20446;-85
2023/09/24 04:28:55;;;;;;;7.63;2.90;;;8.90;99.10;;;;;;6084616;23;20804;-84
2023/09/24 04:31:23;;;;;;;4.47;2.40;;;8.90;99.30;;;;;;6082666;23;20443;-84
2023/09/24 04:33:49;;;;;;;7.70;2.50;;;8.90;99.20;;;;;;6101961;23;20451;-84
2023/09/24 04:36:18;;;;;;;14.77;1.77;;;8.90;99.10;;;;;;6091519;23;20833;-85
2023/09/24 04:38:47;;;;;;;2.17;1.53;;;8.80;99.00;;;;;;6092222;23;20451;-84
2023/09/24 04:41:16;;;;;;;9.63;2.43;;;8.90;99.00;;;;;;6100022;23;20825;-85
2023/09/24 04:43:43;;;;;;;2.03;1.83;;;8.80;98.90;;;;;;6062629;23;20502;-84
2023/09/24 04:46:11;;;;;;;4.67;3.07;;;8.80;98.90;;;;;;6106530;23;20451;-85
2023/09/24 04:48:40;;;;;;;6.63;2.60;;;;;;;;;;6106417;23;20474;-85
2023/09/24 04:51:07;;;;;;;3.53;3.00;;;8.80;98.70;;;;;;6103204;23;20446;-85
2023/09/24 04:53:33;;;;;;;24.10;3.40;;;8.80;98.60;;;;;;6069663;23;20451;-85
2023/09/24 04:56:00;;;;;;;3.23;3.03;;;8.80;98.50;;;;;;6101003;23;20447;-86
2023/09/24 04:58:27;;;;;;;22.73;2.50;;;;;;;;;;6104751;23;20456;-85
2023/09/24 05:01:04;;;;;;;25.70;4.00;;;8.70;98.40;;;;;;6089001;23;20443;-84
2023/09/24 05:03:32;;;;;;;2.13;1.90;;;8.70;98.40;;;;;;6105766;23;20447;-85
2023/09/24 05:06:02;;;;;;;3.20;3.00;;;8.70;98.40;;;;;;6101748;23;20451;-86
2023/09/24 05:08:29;;;;;;;20.40;2.70;;;8.50;98.20;;;;;;6106003;23;20474;-85
2023/09/24 05:10:55;;;;;;;6.23;3.17;;;8.50;98.40;;;;;;6105903;23;20443;-84
2023/09/24 05:13:22;;;;;;;2.33;2.13;;;8.30;98.40;;;;;;6104335;23;20473;-85
2023/09/24 05:15:54;;;;;;;10.93;2.07;;;8.20;98.60;;;;;;6101845;23;20447;-85
2023/09/24 05:18:21;;;;;;;12.60;2.13;;;8.10;98.90;;;;;;6106100;23;20519;-85
2023/09/24 05:20:48;;;;;;;2.43;2.23;;;7.90;99.00;;;;;;6088265;23;20523;-85
2023/09/24 05:23:17;;;;;;;6.10;1.73;;;7.80;99.60;;;;;;6080446;23;20495;-85
2023/09/24 05:25:44;;;;;;;1.60;1.00;;;7.80;99.40;;;;;;6077655;23;20454;-84
2023/09/24 05:28:10;;;;;;;51.70;3.73;;;7.80;99.50;;;;;;6085631;23;20753;-85
2023/09/24 05:30:37;;;;;;;2.40;1.60;;;7.70;99.60;;;;;;6103962;23;20451;-85
2023/09/24 05:33:04;;;;;;;2.80;2.60;;;7.60;99.90;;;;;;6071672;23;20457;-85
2023/09/24 05:35:32;;;;;;;12.90;2.83;;;7.60;99.90;;;;;;6102320;23;20451;-85
2023/09/24 05:37:59;;;;;;;14.63;2.67;;;7.70;99.90;;;;;;6071197;23;20451;-85
2023/09/24 05:40:27;;;;;;;2.10;1.67;;;7.70;99.90;;;;;;6085614;23;20454;-85
2023/09/24 05:42:54;;;;;;;10.93;3.13;;;;;;;;;;6104052;23;20443;-84
2023/09/24 05:45:21;;;;;;;71.03;26.00;;;7.80;99.90;;;;;;6105328;23;20847;-84
2023/09/24 05:47:48;;;;;;;18.87;3.20;;;7.90;99.90;;;;;;6110111;23;20454;-84
2023/09/24 05:50:15;;;;;;;6.07;1.80;;;7.90;99.80;;;;;;6091286;23;20545;-85
2023/09/24 05:52:41;;;;;;;2.20;1.70;;;7.90;99.90;;;;;;6100973;23;20855;-86
2023/09/24 05:55:09;;;;;;;6.10;1.83;;;7.80;99.80;;;;;;6075607;23;21005;-85
2023/09/24 05:57:37;;;;;;;14.73;2.57;;;7.70;99.90;;;;;;6103526;23;20469;-85
2023/09/24 06:00:08;;;;;;;2.77;2.57;;;7.60;99.90;;;;;;6105353;23;20443;-85
2023/09/24 06:02:35;;;;;;;53.90;4.70;;;7.70;99.90;;;;;;6105555;23;20454;-84
2023/09/24 06:05:02;;;;;;;3.77;3.47;;;7.70;99.90;;;;;;6104011;23;20447;-84
2023/09/24 06:07:29;;;;;;;14.03;2.33;;;7.80;99.90;;;;;;6108275;23;21145;-84
2023/09/24 06:09:56;;;;;;;38.73;4.63;;;7.90;99.90;;;;;;6113925;23;20447;-86
2023/09/24 06:12:24;;;;;;;2.83;2.50;;;8.00;99.90;;;;;;6120190;23;20477;-84
2023/09/24 06:14:52;;;;;;;2.40;2.10;;;8.00;99.90;;;;;;6082129;23;20570;-85
2023/09/24 06:17:18;;;;;;;25.77;3.33;;;8.00;99.90;;;;;;6103340;23;20447;-85
2023/09/24 06:19:46;;;;;;;1.70;1.27;;;8.00;99.90;;;;;;6095502;23;20534;-85
2023/09/24 06:22:13;;;;;;;3.73;1.90;;;8.10;99.90;;;;;;6105042;23;20863;-85
2023/09/24 06:24:40;;;;;;;9.83;2.23;;;8.30;99.90;;;;;;6106547;23;20451;-84
2023/09/24 06:27:06;;;;;;;10.90;2.20;;;8.40;99.90;;;;;;6102273;23;20675;-85
2023/09/24 06:29:35;;;;;;;7.67;2.07;;;8.60;99.90;;;;;;6107025;23;20450;-84
2023/09/24 06:32:05;;;;;;;24.30;3.80;;;8.90;99.90;;;;;;6085848;23;20447;-85
2023/09/24 06:34:35;;;;;;;2.30;1.83;;;9.10;99.90;;;;;;6099816;23;20439;-85
2023/09/24 06:37:02;;;;;;;35.70;3.80;;;9.40;99.90;;;;;;6108478;23;20518;-85
2023/09/24 06:39:29;;;;;;;7.00;2.13;;;9.70;99.90;;;;;;6103667;23;20833;-86
2023/09/24 06:41:56;;;;;;;4.50;2.30;;;10.00;99.90;;;;;;6096984;23;20475;-86
2023/09/24 06:44:24;;;;;;;1.80;1.57;;;10.40;99.90;;;;;;6084468;23;20449;-86
2023/09/24 06:46:51;;;;;;;14.33;2.60;;;10.80;99.70;;;;;;6102073;23;20791;-85
2023/09/24 06:49:20;;;;;;;6.23;1.87;;;11.20;99.90;;;;;;6109912;23;20506;-85
2023/09/24 06:51:47;;;;;;;2.57;1.90;;;11.70;99.70;;;;;;6112061;23;20832;-86
2023/09/24 06:54:14;;;;;;;1.87;1.67;;;12.30;99.50;;;;;;6106918;23;20443;-85
2023/09/24 06:56:40;;;;;;;29.70;3.40;;;13.40;99.40;;;;;;6105475;23;20768;-85
2023/09/24 06:59:09;;;;;;;8.03;2.57;;;14.40;98.00;;;;;;6107077;23;20447;-87
2023/09/24 07:01:36;;;;;;;5.13;3.20;;;15.20;96.20;;;;;;6088353;23;20446;-86
2023/09/24 07:04:04;;;;;;;7.77;2.67;;;;;;;;;;6099341;23;20944;-87
2023/09/24 07:06:33;;;;;;;16.53;2.50;;;16.20;93.90;;;;;;6092861;23;20443;-87
2023/09/24 07:09:00;;;;;;;1.70;1.20;;;16.60;93.60;;;;;;6104549;23;20439;-86
2023/09/24 07:11:31;;;;;;;15.53;3.53;;;17.30;93.50;;;;;;6109891;23;20439;-87
2023/09/24 07:13:58;;;;;;;2.73;1.60;;;17.90;92.70;;;;;;6067559;23;20606;-87
2023/09/24 07:16:26;;;;;;;12.87;3.07;;;18.90;92.10;;;;;;6078991;23;20493;-89
2023/09/24 07:18:54;;;;;;;10.63;1.73;;;;;;;;;;6109215;23;20443;-88
2023/09/24 07:21:24;;;;;;;2.80;1.20;;;20.40;90.50;;;;;;6108039;23;21002;-88
2023/09/24 07:23:54;;;;;;;5.40;2.13;;;20.90;89.30;;;;;;6105877;23;20454;-87
2023/09/24 07:26:22;;;;;;;5.30;1.80;;;;;;;;;;6111669;23;20526;-86
2023/09/24 07:28:51;;;;;;;2.70;1.80;;;21.30;87.70;;;;;;6088603;23;20485;-86
2023/09/24 07:31:21;;;;;;;7.20;1.90;;;21.50;87.30;;;;;;6101637;23;20965;-88
2023/09/24 07:33:49;;;;;;;2.37;1.53;;;21.60;86.70;;;;;;6086161;23;20447;-88
2023/09/24 07:36:16;;;;;;;5.70;2.03;;;21.60;87.20;;;;;;6097734;23;20451;-87
2023/09/24 07:38:43;;;;;;;4.60;1.60;;;21.60;86.90;;;;;;6105232;23;20446;-87
2023/09/24 07:41:11;;;;;;;3.17;1.73;;;21.60;87.20;;;;;;6106685;23;24927;-87
2023/09/24 07:43:41;;;;;;;25.97;2.50;;;21.50;86.60;;;;;;6108854;23;20456;-87
2023/09/24 07:46:12;;;;;;;12.63;1.87;;;21.40;86.90;;;;;;6103372;23;20814;-87
2023/09/24 07:48:39;;;;;;;1.93;1.27;;;21.20;86.50;;;;;;6094547;23;20506;-86
2023/09/24 07:51:06;;;;;;;6.27;1.90;;;21.10;87.40;;;;;;6109777;23;20451;-86
2023/09/24 07:53:33;;;;;;;7.10;1.60;;;20.90;87.40;;;;;;6112080;23;20443;-85
2023/09/24 07:56:02;;;;;;;2.00;1.23;;;20.70;88.00;;;;;;6092616;23;20454;-85
2023/09/24 07:58:31;;;;;;;2.03;1.43;;;20.60;89.50;;;;;;6104436;23;20744;-86
2023/09/24 08:01:03;;;;;;;9.33;1.83;;;20.50;89.90;;;;;;6105961;23;20613;-86
2023/09/24 08:03:30;;;;;;;2.20;1.57;;;20.40;90.00;;;;;;6108651;23;20439;-86
2023/09/24 08:05:56;;;;;;;4.40;1.87;;;20.30;90.60;;;;;;6077674;23;20447;-87
2023/09/24 08:08:23;;;;;;;2.10;1.40;;;20.20;90.70;;;;;;6102358;23;20435;-87
2023/09/24 08:11:18;;;;;;;2.97;1.70;;;20.10;90.90;;;;;;6087417;23;20455;-86
2023/09/24 08:13:46;;;;;;;11.00;1.87;;;20.00;91.50;;;;;;6088647;23;20443;-87
2023/09/24 08:16:13;;;;;;;6.20;1.87;;;20.00;91.30;;;;;;6073252;23;20447;-85
2023/09/24 08:18:44;;;;;;;13.90;2.17;;;;;;;;;;6095275;23;20665;-87
2023/09/24 08:21:10;;;;;;;8.63;2.00;;;19.90;91.60;;;;;;6103522;23;20526;-85
2023/09/24 08:23:37;;;;;;;7.70;2.00;;;19.80;91.60;;;;;;6102834;23;20470;-86
2023/09/24 08:26:04;;;;;;;2.97;1.70;;;19.70;92.30;;;;;;6103061;23;20447;-87
2023/09/24 08:28:32;;;;;;;19.37;2.73;;;19.70;92.80;;;;;;6096745;23;20663;-86
2023/09/24 08:31:08;;;;;;;3.60;1.90;;;19.70;92.50;;;;;;6086394;23;20450;-85
2023/09/24 08:33:36;;;;;;;3.13;1.30;;;19.80;93.10;;;;;;6070427;23;20446;-85
2023/09/24 08:36:08;;;;;;;4.20;2.23;;;19.80;93.30;;;;;;6094740;23;20448;-86
2023/09/24 08:38:35;;;;;;;1.80;1.10;;;19.90;93.30;;;;;;6082250;23;20510;-86
2023/09/24 08:41:03;;;;;;;13.53;2.70;;;20.00;93.30;;;;;;6108349;23;20483;-86
2023/09/24 08:43:32;;;;;;;6.37;2.10;;;20.10;93.50;;;;;;6102025;23;20455;-87
2023/09/24 08:46:01;;;;;;;2.47;1.97;;;20.20;93.40;;;;;;6087618;23;20974;-87
2023/09/24 08:48:30;;;;;;;11.27;2.40;;;20.30;93.80;;;;;;6107207;23;20455;-85
2023/09/24 08:50:57;;;;;;;14.13;3.13;;;20.40;94.00;;;;;;6095725;23;20448;-86
2023/09/24 08:53:28;;;;;;;5.27;2.43;;;20.50;93.50;;;;;;6108572;23;20447;-85
2023/09/24 08:55:55;;;;;;;4.63;2.40;;;20.60;93.60;;;;;;6092848;23;20443;-86
2023/09/24 08:58:23;;;;;;;13.50;2.57;;;20.80;94.20;;;;;;6103059;23;20443;-85
2023/09/24 09:00:51;;;;;;;5.53;1.70;;;20.90;94.10;;;;;;6099050;23;20882;-86
2023/09/24 09:03:19;;;;;;;5.40;2.17;;;20.90;93.80;;;;;;6106997;23;21020;-85
2023/09/24 09:05:47;;;;;;;5.80;2.00;;;;;;;;;;6106071;23;20494;-85
2023/09/24 09:08:14;;;;;;;22.53;3.40;;;21.20;93.50;;;;;;6079758;23;20447;-86
2023/09/24 09:10:40;;;;;;;3.13;2.13;;;21.30;93.60;;;;;;6091180;23;20449;-85
2023/09/24 09:13:09;;;;;;;21.00;2.70;;;21.50;93.40;;;;;;6100475;23;20945;-84
2023/09/24 09:15:38;;;;;;;9.47;2.30;;;21.50;92.90;;;;;;6100660;23;20477;-87
2023/09/24 09:18:05;;;;;;;4.67;1.87;;;21.70;92.80;;;;;;6080104;23;20451;-87
2023/09/24 09:20:47;;;;;;;2.80;1.80;;;21.70;92.90;;;;;;6096488;23;20646;-84
2023/09/24 09:23:16;;;;;;;5.03;2.40;;;21.70;92.60;;;;;;6080296;23;20447;-86
2023/09/24 09:25:51;;;;;;;3.90;1.70;;;21.60;92.80;;;;;;6107109;23;20447;-85
2023/09/24 09:28:22;;;;;;;17.63;2.67;;;21.70;92.80;;;;;;6089865;23;20451;-84
2023/09/24 09:31:03;;;;;;;8.53;2.03;;;21.90;92.90;;;;;;6090369;23;20992;-84
2023/09/24 09:33:35;;;;;;;9.80;2.30;;;21.90;92.30;;;;;;6100143;23;20439;-86
2023/09/24 09:36:05;;;;;;;15.47;2.53;;;22.10;93.10;;;;;;6068069;23;20523;-86
2023/09/24 09:38:31;;;;;;;2.70;1.63;;;22.20;92.70;;;;;;6096390;23;20424;-86
2023/09/24 09:40:59;;;;;;;2.80;1.60;;;22.30;93.30;;;;;;6106668;23;20453;-85
2023/09/24 09:43:29;;;;;;;9.70;1.67;;;22.20;90.90;;;;;;6095869;23;20832;-85
2023/09/24 09:45:57;;;;;;;5.90;2.20;;;22.00;90.20;;;;;;6100945;23;20455;-85
2023/09/24 09:48:30;;;;;;;4.00;1.37;;;22.00;91.80;;;;;;6091923;23;20443;-84
2023/09/24 09:51:07;;;;;;;3.73;1.30;;;21.50;91.90;;;;;;6107518;23;20443;-86
2023/09/24 09:53:36;;;;;;;8.93;2.20;;;21.10;90.70;;;;;;6108394;23;20443;-85
2023/09/24 09:56:04;;;;;;;2.97;1.47;;;;;;;;;;6098674;23;20451;-85
2023/09/24 09:58:33;;;;;;;3.20;1.37;;;20.70;92.60;;;;;;6086769;23;20454;-85
2023/09/24 10:01:01;;;;;;;3.67;1.80;;;20.90;92.40;;;;;;6091450;23;20946;-84
2023/09/24 10:03:29;;;;;;;32.47;3.00;;;21.40;92.40;;;;;;6092279;23;20447;-87
2023/09/24 10:05:58;;;;;;;3.80;1.60;;;21.40;91.10;;;;;;6089742;23;20465;-84
2023/09/24 10:08:54;;;;;;;3.97;1.67;;;;;;;;;;6089225;23;20451;-86
2023/09/24 10:11:43;;;;;;;14.13;2.50;;;;;;;;;;6097719;23;20506;-85
2023/09/24 10:14:11;;;;;;;2.10;1.00;;;20.70;90.00;;;;;;6071742;23;20562;-85
2023/09/24 10:16:39;;;;;;;15.23;2.20;;;20.50;91.30;;;;;;6086384;23;20953;-85
2023/09/24 10:19:07;;;;;;;2.50;1.73;;;20.60;89.70;;;;;;6093760;23;20466;-84
2023/09/24 10:21:35;;;;;;;4.13;1.13;;;20.70;89.80;;;;;;6103575;23;20439;-84
2023/09/24 10:24:39;;;;;;;26.50;2.73;;;20.70;88.60;;;;;;6096154;23;20482;-85
2023/09/24 10:27:07;;;;;;;7.83;1.40;;;;;;;;;;6108055;23;20451;-85
2023/09/24 10:30:08;;;;;;;3.07;1.13;;;20.70;86.30;;;;;;6107494;23;20648;-84
2023/09/24 10:32:49;;;;;;;3.87;1.90;;;20.30;87.20;;;;;;6080292;23;21038;-83
2023/09/24 10:35:17;;;;;;;5.00;1.87;;;20.00;85.00;;;;;;6061715;23;20439;-83
2023/09/24 10:38:03;;;;;;;30.87;3.27;;;;;;;;;;6102686;23;20443;-85
2023/09/24 10:40:32;;;;;;;5.50;1.53;;;20.20;90.40;;;;;;6093332;23;20446;-84
2023/09/24 10:43:16;;;;;;;9.23;1.43;;;20.40;86.90;;;;;;6103641;23;20439;-84
2023/09/24 10:45:44;;;;;;;8.60;1.57;;;20.80;90.10;;;;;;6093203;23;21056;-84
2023/09/24 10:48:11;;;;;;;4.60;1.47;;;20.70;90.00;;;;;;6087509;23;20447;-84
2023/09/24 10:50:41;;;;;;;2.70;1.47;;;21.00;90.60;;;;;;6078360;23;20451;-84
2023/09/24 10:53:09;;;;;;;8.50;1.80;;;21.50;90.30;;;;;;6068986;23;20449;-84
2023/09/24 10:55:41;;;;;;;7.17;1.47;;;21.70;86.30;;;;;;6080560;23;20455;-84
2023/09/24 10:58:14;;;;;;;3.30;1.37;;;22.00;87.50;;;;;;6109019;23;20439;-84
2023/09/24 11:00:43;;;;;;;7.00;1.90;;;22.40;89.50;;;;;;6108944;23;20480;-83
2023/09/24 11:03:13;;;;;;;5.50;1.27;;;22.70;89.10;;;;;;6069016;23;20542;-84
2023/09/24 11:05:45;;;;;;;6.93;1.80;;;23.00;87.50;;;;;;6066095;23;20439;-83
2023/09/24 11:08:15;;;;;;;4.30;1.13;;;23.00;84.60;;;;;;6068512;23;20470;-84
2023/09/24 11:10:48;;;;;;;5.53;1.20;;;23.10;83.50;;;;;;6104857;23;20785;-85
2023/09/24 11:13:16;;;;;;;7.30;1.33;;;23.30;82.70;;;;;;6058649;23;20435;-85
2023/09/24 11:15:43;;;;;;;5.50;1.27;;;23.30;82.70;;;;;;6094954;23;20439;-85
2023/09/24 11:18:12;;;;;;;7.33;1.67;;;23.50;85.60;;;;;;6104831;23;20447;-86
2023/09/24 11:20:47;;;;;;;6.47;1.27;;;23.50;82.00;;;;;;6085179;23;20975;-84
2023/09/24 11:23:14;;;;;;;2.50;1.67;;;23.10;76.30;;;;;;6084599;23;20422;-85
2023/09/24 11:25:47;;;;;;;2.90;1.20;;;;;;;;;;6096438;23;20582;-84
2023/09/24 11:28:15;;;;;;;10.70;1.60;;;23.20;81.90;;;;;;6082383;23;20470;-83
2023/09/24 11:30:43;;;;;;;4.20;2.03;;;23.30;82.30;;;;;;6077139;23;20502;-84
2023/09/24 11:33:15;;;;;;;14.03;2.37;;;23.50;85.10;;;;;;6089689;23;20426;-85
2023/09/24 11:35:42;;;;;;;1.87;1.20;;;23.60;84.50;;;;;;6107053;23;20452;-84
2023/09/24 11:38:09;;;;;;;3.50;1.30;;;23.90;82.00;;;;;;6090202;23;20806;-85
2023/09/24 11:40:37;;;;;;;3.90;1.10;;;;;;;;;;6090582;23;20778;-86
2023/09/24 11:43:06;;;;;;;8.70;1.43;;;24.10;80.40;;;;;;6092261;23;20447;-84
2023/09/24 11:45:48;;;;;;;2.97;1.57;;;24.10;78.60;;;;;;6105490;23;20525;-85
2023/09/24 11:48:17;;;;;;;19.10;2.30;;;23.70;75.80;;;;;;6092765;23;20489;-85
2023/09/24 11:50:47;;;;;;;7.60;1.67;;;23.90;79.90;;;;;;6110117;23;20422;-85
2023/09/24 11:53:14;;;;;;;3.40;1.83;;;24.00;79.70;;;;;;6077350;23;20509;-84
2023/09/24 11:55:42;;;;;;;27.10;2.73;;;;;;;;;;6106251;23;20422;-84
2023/09/24 11:58:11;;;;;;;8.90;2.00;;;24.10;78.90;;;;;;6089172;23;20831;-84
2023/09/24 12:00:39;;;;;;;21.17;2.33;;;24.30;78.00;;;;;;6107063;23;20540;-84
2023/09/24 12:03:17;;;;;;;7.33;1.50;;;24.40;80.30;;;;;;6102690;23;20445;-85
2023/09/24 12:05:45;;;;;;;2.60;1.30;;;24.50;78.30;;;;;;6090593;23;20467;-82
2023/09/24 12:08:11;;;;;;;24.13;3.00;;;23.80;72.50;;;;;;6088791;23;20776;-83
2023/09/24 12:10:46;;;;;;;13.53;2.37;;;23.60;78.10;;;;;;6101012;23;20896;-86
2023/09/24 12:13:13;;;;;;;2.10;1.40;;;23.70;80.00;;;;;;6107092;23;20469;-84
2023/09/24 12:15:40;;;;;;;11.57;2.70;;;24.00;79.40;;;;;;6076796;23;20781;-84
2023/09/24 12:18:10;;;;;;;5.03;1.43;;;24.00;76.60;;;;;;6092923;23;20923;-84
2023/09/24 12:20:39;;;;;;;3.77;1.30;;;24.20;78.50;;;;;;6089532;23;20458;-85
2023/09/24 12:23:07;;;;;;;4.90;1.60;;;24.50;78.50;;;;;;6096360;23;21131;-85
2023/09/24 12:25:35;;;;;;;1.90;1.20;;;24.60;77.70;;;;;;6103572;23;20436;-84
2023/09/24 12:28:03;;;;;;;30.87;3.13;;;24.10;72.30;;;;;;6106386;23;20442;-84
2023/09/24 12:30:30;;;;;;;18.00;2.63;;;24.00;78.60;;;;;;6104840;23;20465;-85
2023/09/24 12:32:57;;;;;;;2.30;1.30;;;24.10;79.80;;;;;;6106093;23;21078;-84
2023/09/24 12:35:25;;;;;;;19.73;3.03;;;24.30;82.50;;;;;;6073609;23;20447;-85
2023/09/24 12:37:54;;;;;;;11.83;1.90;;;24.40;79.30;;;;;;6090152;23;20451;-84
2023/09/24 12:40:22;;;;;;;3.03;1.60;;;24.60;80.00;;;;;;6114238;23;20709;-83
2023/09/24 12:42:49;;;;;;;7.00;1.63;;;24.50;72.10;;;;;;6115775;23;20414;-82
2023/09/24 12:45:16;;;;;;;16.20;2.67;;;24.10;73.00;;;;;;6103539;23;20709;-85
2023/09/24 12:47:43;;;;;;;2.57;1.50;;;24.10;75.40;;;;;;6052849;23;20421;-84
2023/09/24 12:50:11;;;;;;;9.43;2.03;;;23.60;72.50;;;;;;6088900;23;20421;-85
2023/09/24 12:52:41;;;;;;;4.60;1.63;;;23.40;74.80;;;;;;6106255;23;20494;-86
2023/09/24 12:55:10;;;;;;;3.17;1.47;;;23.30;70.60;;;;;;6100675;23;20429;-84
2023/09/24 12:57:38;;;;;;;7.60;1.70;;;23.00;71.10;;;;;;6078183;23;20821;-84
2023/09/24 13:00:10;;;;;;;3.23;1.30;;;;;;;;;;6106518;23;20446;-83
2023/09/24 13:02:38;;;;;;;14.13;2.53;;;22.90;75.20;;;;;;6106488;23;20648;-85
2023/09/24 13:05:05;;;;;;;13.97;2.13;;;23.10;74.00;;;;;;6074415;23;20447;-83
2023/09/24 13:07:32;;;;;;;5.23;1.80;;;23.40;73.50;;;;;;6087354;23;20429;-84
2023/09/24 13:10:00;;;;;;;10.30;1.97;;;23.40;73.30;;;;;;6057409;23;20429;-84
2023/09/24 13:12:27;;;;;;;29.87;3.40;;;23.40;72.20;;;;;;6091425;23;21518;-83
2023/09/24 13:14:55;;;;;;;2.93;1.50;;;23.70;75.10;;;;;;6096031;23;20454;-84
2023/09/24 13:17:23;;;;;;;2.27;1.00;;;23.70;71.10;;;;;;6096805;23;20422;-83
2023/09/24 13:19:50;;;;;;;8.03;1.63;;;23.70;75.20;;;;;;6093841;23;20425;-86
2023/09/24 13:22:17;;;;;;;3.50;1.10;;;24.00;74.10;;;;;;6089225;23;20422;-84
2023/09/24 13:24:44;;;;;;;7.03;1.57;;;24.10;72.50;;;;;;6082804;23;20457;-84
2023/09/24 13:27:12;;;;;;;4.03;1.73;;;24.00;70.40;;;;;;6053286;23;20428;-83
2023/09/24 13:29:39;;;;;;;2.40;1.23;;;23.70;69.80;;;;;;6095889;23;20739;-84
2023/09/24 13:32:07;;;;;;;24.37;3.07;;;23.70;74.90;;;;;;6064516;23;20446;-85
2023/09/24 13:34:33;;;;;;;6.50;1.90;;;23.80;72.50;;;;;;6094749;23;20517;-85
2023/09/24 13:37:01;;;;;;;14.30;2.47;;;;;;;;;;6062638;23;20777;-84
2023/09/24 13:39:28;;;;;;;12.17;1.90;;;23.80;69.40;;;;;;6077874;23;20454;-85
2023/09/24 13:41:55;;;;;;;3.07;1.33;;;23.60;71.20;;;;;;6067639;23;20430;-86
2023/09/24 13:44:24;;;;;;;11.80;2.07;;;23.20;69.10;;;;;;6060759;23;20451;-84
2023/09/24 13:46:52;;;;;;;7.03;1.70;;;;;;;;;;6066867;23;20433;-86
2023/09/24 13:49:19;;;;;;;2.33;1.43;;;23.10;75.40;;;;;;6074315;23;20953;-84
2023/09/24 13:51:46;;;;;;;9.53;1.90;;;23.10;69.70;;;;;;6068782;23;20458;-84
2023/09/24 13:54:12;;;;;;;3.23;1.53;;;23.40;73.50;;;;;;6099576;23;20425;-85
2023/09/24 13:56:42;;;;;;;5.17;1.93;;;23.30;70.20;;;;;;6090893;23;20424;-84
2023/09/24 13:59:09;;;;;;;8.77;1.80;;;23.10;68.90;;;;;;6112496;23;20475;-84
2023/09/24 14:01:37;;;;;;;3.73;1.27;;;23.00;69.80;;;;;;6105193;23;20417;-86
2023/09/24 14:04:04;;;;;;;3.63;1.43;;;22.90;71.50;;;;;;6063601;23;20422;-85
2023/09/24 14:06:30;;;;;;;16.23;1.90;;;22.60;70.30;;;;;;6093409;23;20501;-84
2023/09/24 14:14:25;;;;;;;15.53;2.47;;;22.90;69.80;;;;;;6069603;23;20521;-85
2023/09/24 14:16:53;;;;;;;4.27;1.20;;;22.90;70.60;;;;;;6078664;23;20451;-84
2023/09/24 14:19:20;;;;;;;8.60;1.57;;;23.00;71.30;;;;;;6079349;23;20443;-85
2023/09/24 14:21:47;;;;;;;13.83;2.00;;;23.00;70.90;;;;;;6043761;23;21251;-85
2023/09/24 14:24:14;;;;;;;2.73;1.60;;;22.90;73.60;;;;;;6076404;23;20814;-87
2023/09/24 14:26:41;;;;;;;2.20;1.33;;;22.50;69.10;;;;;;6090211;23;20429;-83
2023/09/24 14:29:07;;;;;;;18.93;2.00;;;22.60;71.30;;;;;;6086752;23;20454;-85
2023/09/24 14:31:34;;;;;;;2.33;1.10;;;22.40;71.40;;;;;;6078790;23;20447;-84
2023/09/24 14:34:02;;;;;;;8.80;2.30;;;22.70;73.80;;;;;;6095986;23;20445;-84
2023/09/24 14:36:30;;;;;;;4.77;1.17;;;;;;;;;;6097890;23;20497;-84
2023/09/24 14:39:02;;;;;;;36.57;3.40;;;22.60;71.20;;;;;;6083847;23;20442;-85
2023/09/24 14:41:28;;;;;;;5.93;1.67;;;22.40;69.50;;;;;;6100143;23;20418;-86
2023/09/24 14:43:57;;;;;;;2.13;1.20;;;22.60;72.40;;;;;;6085499;23;20461;-84
2023/09/24 14:46:26;;;;;;;2.40;1.43;;;;;;;;;;6100944;23;20432;-86
2023/09/24 14:48:53;;;;;;;18.03;2.23;;;23.30;71.60;;;;;;6076794;23;20455;-86
2023/09/24 14:51:21;;;;;;;1.60;0.70;;;23.30;70.80;;;;;;6066204;23;20417;-84
2023/09/24 14:53:48;;;;;;;3.30;1.43;;;23.20;72.10;;;;;;6097497;23;20807;-86
2023/09/24 14:56:20;;;;;;;20.57;2.17;;;23.50;70.60;;;;;;6096978;23;20445;-87
2023/09/24 14:58:47;;;;;;;3.20;1.53;;;23.60;73.00;;;;;;6062901;23;20413;-84
2023/09/24 15:01:14;;;;;;;1.80;1.00;;;23.90;75.70;;;;;;6084202;23;20421;-86
2023/09/24 15:03:41;;;;;;;4.93;1.53;;;24.20;75.60;;;;;;6091774;23;20422;-84
2023/09/24 15:06:07;;;;;;;2.30;1.27;;;24.50;74.60;;;;;;6095358;23;20461;-86
2023/09/24 15:08:41;;;;;;;10.33;1.40;;;24.40;69.80;;;;;;6059139;23;20458;-86
2023/09/24 15:11:08;;;;;;;9.83;1.80;;;24.20;69.90;;;;;;6048468;23;20514;-85
2023/09/24 15:13:36;;;;;;;18.47;2.27;;;;;;;;;;6092129;23;20737;-85
2023/09/24 15:16:04;;;;;;;9.37;1.47;;;24.00;72.90;;;;;;6102863;23;20421;-84
2023/09/24 15:18:32;;;;;;;3.77;1.40;;;23.50;72.00;;;;;;6088026;23;20443;-85
2023/09/24 15:20:59;;;;;;;7.80;1.90;;;23.50;72.40;;;;;;6086970;23;20760;-84
2023/09/24 15:23:27;;;;;;;19.80;3.23;;;23.60;75.10;;;;;;6095107;23;20497;-84
2023/09/24 15:25:55;;;;;;;3.80;1.77;;;23.70;73.60;;;;;;6079611;23;20454;-86
2023/09/24 15:28:23;;;;;;;6.63;1.43;;;23.40;71.60;;;;;;6091543;23;20458;-85
2023/09/24 15:30:50;;;;;;;11.50;1.97;;;;;;;;;;6085354;23;20621;-86
2023/09/24 15:33:18;;;;;;;4.13;1.43;;;23.50;73.90;;;;;;6064020;23;20482;-85
2023/09/24 15:35:44;;;;;;;3.53;1.77;;;23.50;75.10;;;;;;6079277;23;20413;-85
2023/09/24 15:38:12;;;;;;;3.77;1.83;;;23.60;74.30;;;;;;6101248;23;20451;-83
2023/09/24 15:40:40;;;;;;;14.17;2.30;;;23.60;74.30;;;;;;6099561;23;20494;-83